Loggieville, Canada
Current Conditions -  °F | °C
As of 8:31 AM on Saturday 01 Nov 2014 (Local Time) from CZBF Reporting Station
Light Rain Light Rain  
Wind Chill: 33°   Ceiling: 1700
Heat Index: 37°   Visibility: 15mi
Dew Point: 30°   Wind: 6mph
Humidity: 75%   Direction: 40°NE
Pressure: 30.17"   Gusts: NA
Location:  47.07°N, 65.38°W
Report Text: CZBF 011131Z 04005KT 15SM -RA BKN017 OVC050 OVC200 03/M01 A3017 RMK SC6SC2CS1 CS TR SLP218
Loading
Personal Weather Stations






























Interactive Weather Map
Tropical Storm Tracking
New forecast layout! Learn more

10-Day Weather Forecast

Advertisements
Track Severe Weather on mobile